createdAt,value
2022-09-04T00:02:24.524Z,99.90
2022-09-04T00:05:03.098Z,99.90
2022-09-04T00:07:39.335Z,99.90
2022-09-04T00:10:13.192Z,99.90
2022-09-04T00:12:46.808Z,99.90
2022-09-04T00:15:19.352Z,99.90
2022-09-04T00:17:53.977Z,99.90
2022-09-04T00:20:35.413Z,99.90
2022-09-04T00:23:11.308Z,99.90
2022-09-04T00:25:42.323Z,99.90
2022-09-04T00:28:16.984Z,99.90
2022-09-04T00:30:51.020Z,99.90
2022-09-04T00:33:26.718Z,99.90
2022-09-04T00:35:59.956Z,99.90
2022-09-04T00:38:39.128Z,99.90
2022-09-04T00:41:14.269Z,99.90
2022-09-04T00:44:08.569Z,99.90
2022-09-04T00:47:07.519Z,99.90
2022-09-04T00:50:01.004Z,99.90
2022-09-04T00:52:46.653Z,99.90
2022-09-04T00:55:29.428Z,99.90
2022-09-04T00:58:12.304Z,99.90
2022-09-04T01:00:40.292Z,99.90
2022-09-04T01:03:21.924Z,99.90
2022-09-04T01:06:20.264Z,99.90
2022-09-04T01:09:04.302Z,99.90
2022-09-04T01:11:40.583Z,99.90
2022-09-04T01:14:19.246Z,99.90
2022-09-04T01:16:50.423Z,99.90
2022-09-04T01:19:40.937Z,99.90
2022-09-04T01:22:22.783Z,99.90
2022-09-04T01:25:09.556Z,99.90
2022-09-04T01:27:51.363Z,99.90
2022-09-04T01:30:20.873Z,99.90
2022-09-04T01:33:05.409Z,99.90
2022-09-04T01:35:40.252Z,99.90
2022-09-04T01:38:14.915Z,99.90
2022-09-04T01:40:47.705Z,99.90
2022-09-04T01:43:20.886Z,99.90
2022-09-04T01:46:05.998Z,99.90
2022-09-04T01:48:45.017Z,99.90
2022-09-04T01:51:21.672Z,99.90
2022-09-04T01:54:03.355Z,99.90
2022-09-04T01:56:39.064Z,99.90
2022-09-04T01:59:16.575Z,99.90
2022-09-04T02:01:53.317Z,99.90
2022-09-04T02:04:28.808Z,99.90
2022-09-04T02:07:06.176Z,99.90
2022-09-04T02:09:42.844Z,99.90
2022-09-04T02:12:21.167Z,99.90
2022-09-04T02:14:59.471Z,99.90
2022-09-04T02:17:39.163Z,99.90
2022-09-04T02:20:17.820Z,99.90
2022-09-04T02:22:59.943Z,99.90
2022-09-04T02:25:31.375Z,99.90
2022-09-04T02:28:10.866Z,99.90
2022-09-04T02:30:46.750Z,99.90
2022-09-04T02:33:30.256Z,99.90
2022-09-04T02:36:00.766Z,99.90
2022-09-04T02:38:39.447Z,99.90
2022-09-04T02:41:12.687Z,99.90
2022-09-04T02:43:51.932Z,99.90
2022-09-04T02:46:29.112Z,99.90
2022-09-04T02:49:09.201Z,99.90
2022-09-04T02:52:01.801Z,99.90
2022-09-04T02:54:52.399Z,99.90
2022-09-04T02:57:29.860Z,99.90
2022-09-04T03:00:07.911Z,99.90
2022-09-04T03:02:43.088Z,99.90
2022-09-04T03:05:20.051Z,99.90
2022-09-04T03:07:55.567Z,99.90
2022-09-04T03:10:30.868Z,99.90
2022-09-04T03:13:06.337Z,99.90
2022-09-04T03:15:41.414Z,99.90
2022-09-04T03:18:17.934Z,99.90
2022-09-04T03:20:52.644Z,99.90
2022-09-04T03:23:24.952Z,99.90
2022-09-04T03:26:07.907Z,99.90
2022-09-04T03:28:46.925Z,99.90
2022-09-04T03:31:28.096Z,99.90
2022-09-04T03:34:08.955Z,99.90
2022-09-04T03:36:45.231Z,99.90
2022-09-04T03:39:19.982Z,99.90
2022-09-04T03:41:59.587Z,99.90
2022-09-04T03:44:40.456Z,99.90
2022-09-04T03:47:19.140Z,99.90
2022-09-04T03:50:01.016Z,99.90
2022-09-04T03:52:36.916Z,99.90
2022-09-04T03:55:14.204Z,99.90
2022-09-04T03:58:04.945Z,99.90
2022-09-04T04:00:41.857Z,99.90
2022-09-04T04:03:34.065Z,99.90
2022-09-04T04:06:15.217Z,99.90
2022-09-04T04:09:18.695Z,99.90
2022-09-04T04:12:13.350Z,99.90
2022-09-04T04:14:55.754Z,99.90
2022-09-04T04:17:39.271Z,99.90
2022-09-04T04:20:24.531Z,99.90
2022-09-04T04:23:23.444Z,99.90
2022-09-04T04:26:07.965Z,99.90
2022-09-04T04:28:59.531Z,99.90
2022-09-04T04:31:38.944Z,99.90
2022-09-04T04:34:11.804Z,99.90
2022-09-04T04:36:47.749Z,99.90
2022-09-04T04:39:20.156Z,99.90
2022-09-04T04:42:05.859Z,99.90
2022-09-04T04:45:13.147Z,99.90
2022-09-04T04:47:49.920Z,99.90
2022-09-04T04:50:23.145Z,99.90
2022-09-04T04:52:57.391Z,99.90
2022-09-04T04:55:38.929Z,99.90
2022-09-04T04:58:30.785Z,99.90
2022-09-04T05:01:06.888Z,99.90
2022-09-04T05:03:45.979Z,99.90
2022-09-04T05:06:19.796Z,99.90
2022-09-04T05:08:56.670Z,99.90
2022-09-04T05:11:35.492Z,99.90
2022-09-04T05:14:18.320Z,99.90
2022-09-04T05:16:56.009Z,99.90
2022-09-04T05:19:33.441Z,99.90
2022-09-04T05:22:09.627Z,99.90
2022-09-04T05:24:47.769Z,99.90
2022-09-04T05:27:39.448Z,99.90
2022-09-04T05:30:13.052Z,99.90
2022-09-04T05:32:47.292Z,99.90
2022-09-04T05:35:22.293Z,99.90
2022-09-04T05:37:54.284Z,99.90
2022-09-04T05:40:29.258Z,99.90
2022-09-04T05:43:13.122Z,99.90
2022-09-04T05:45:53.595Z,99.90
2022-09-04T05:48:26.638Z,99.90
2022-09-04T05:51:06.015Z,99.90
2022-09-04T05:53:50.085Z,99.90
2022-09-04T05:56:43.654Z,99.90
2022-09-04T05:59:49.100Z,99.90
2022-09-04T06:02:41.179Z,99.90
2022-09-04T06:05:22.128Z,99.90
2022-09-04T06:08:00.119Z,99.90
2022-09-04T06:10:37.072Z,99.90
2022-09-04T06:13:21.984Z,99.90
2022-09-04T06:16:02.621Z,99.90
2022-09-04T06:18:47.574Z,99.90
2022-09-04T06:21:36.728Z,99.90
2022-09-04T06:24:25.298Z,99.90
2022-09-04T06:27:11.492Z,99.90
2022-09-04T06:29:54.133Z,99.90
2022-09-04T06:32:36.809Z,99.90
2022-09-04T06:35:18.387Z,99.90
2022-09-04T06:37:58.517Z,99.90
2022-09-04T06:40:41.767Z,99.90
2022-09-04T06:43:19.425Z,99.90
2022-09-04T06:46:02.129Z,99.90
2022-09-04T06:48:47.870Z,99.90
2022-09-04T06:51:32.670Z,98.20
2022-09-04T06:54:13.539Z,93.70
2022-09-04T06:57:01.296Z,91.80
2022-09-04T06:59:54.295Z,85.20
2022-09-04T07:02:38.475Z,79.80
2022-09-04T07:05:18.863Z,82.00
2022-09-04T07:07:58.576Z,81.80
2022-09-04T07:10:31.206Z,81.90
2022-09-04T07:13:33.715Z,76.50
2022-09-04T07:16:18.889Z,74.10
2022-09-04T07:19:08.842Z,74.60
2022-09-04T07:21:45.268Z,73.00
2022-09-04T07:24:38.617Z,70.10
2022-09-04T07:27:14.195Z,71.40
2022-09-04T07:29:48.681Z,70.30
2022-09-04T07:32:23.283Z,71.10
2022-09-04T07:34:58.530Z,68.60
2022-09-04T07:37:33.247Z,70.10
2022-09-04T07:40:12.602Z,67.30
2022-09-04T07:42:48.160Z,66.00
2022-09-04T07:45:26.258Z,65.80
2022-09-04T07:48:04.061Z,65.00
2022-09-04T07:50:39.980Z,62.90
2022-09-04T07:53:25.460Z,60.30
2022-09-04T07:55:56.915Z,58.50
2022-09-04T07:58:44.127Z,58.20
2022-09-04T08:01:26.415Z,57.60
2022-09-04T08:04:22.089Z,57.50
2022-09-04T08:06:53.295Z,57.40
2022-09-04T08:09:44.979Z,56.40
2022-09-04T08:12:50.770Z,57.20
2022-09-04T08:15:21.718Z,56.40
2022-09-04T08:18:09.208Z,56.10
2022-09-04T08:20:48.982Z,53.70
2022-09-04T08:23:49.948Z,53.90
2022-09-04T08:26:25.406Z,53.50
2022-09-04T08:29:23.941Z,53.20
2022-09-04T08:32:04.534Z,53.00
2022-09-04T08:34:52.839Z,51.60
2022-09-04T08:37:26.709Z,50.90
2022-09-04T08:40:14.759Z,50.40
2022-09-04T08:43:20.299Z,50.20
2022-09-04T08:46:13.336Z,51.00
2022-09-04T08:49:23.960Z,49.70
2022-09-04T08:52:25.057Z,48.20
2022-09-04T08:55:24.135Z,46.80
2022-09-04T08:58:21.508Z,46.60
2022-09-04T09:01:10.536Z,49.10
2022-09-04T09:04:03.950Z,48.90
2022-09-04T09:07:02.815Z,48.50
2022-09-04T09:10:09.324Z,47.60
2022-09-04T09:13:18.040Z,44.60
2022-09-04T09:16:23.140Z,44.80
2022-09-04T09:19:22.597Z,45.20
2022-09-04T09:22:10.389Z,46.20
2022-09-04T09:25:13.460Z,45.90
2022-09-04T09:28:18.232Z,44.30
2022-09-04T09:31:18.404Z,42.50
2022-09-04T09:34:12.279Z,42.70
2022-09-04T09:37:09.021Z,44.40
2022-09-04T09:40:20.688Z,44.90
2022-09-04T09:43:42.056Z,44.60
2022-09-04T09:46:32.576Z,42.10
2022-09-04T09:49:39.630Z,42.70
2022-09-04T09:52:27.508Z,44.30
2022-09-04T09:55:23.717Z,44.10
2022-09-04T09:58:39.057Z,46.50
2022-09-04T10:01:24.590Z,49.30
2022-09-04T10:04:11.778Z,48.00
2022-09-04T10:07:21.214Z,45.10
2022-09-04T10:10:18.124Z,42.00
2022-09-04T10:13:16.120Z,40.40
2022-09-04T10:16:28.410Z,40.70
2022-09-04T10:19:27.168Z,39.10
2022-09-04T10:22:28.658Z,39.00
2022-09-04T10:25:42.199Z,39.20
2022-09-04T10:28:31.627Z,39.50
2022-09-04T10:31:27.748Z,38.90
2022-09-04T10:34:11.631Z,38.50
2022-09-04T10:36:52.995Z,38.00
2022-09-04T10:39:46.828Z,37.90
2022-09-04T10:42:31.227Z,37.90
2022-09-04T10:45:17.806Z,38.40
2022-09-04T10:48:28.458Z,39.30
2022-09-04T10:51:23.259Z,39.40
2022-09-04T10:54:25.921Z,40.10
2022-09-04T10:57:08.022Z,38.70
2022-09-04T10:59:59.196Z,37.00
2022-09-04T11:02:54.942Z,37.20
2022-09-04T11:05:41.312Z,36.50
2022-09-04T11:08:50.209Z,36.00
2022-09-04T11:11:40.144Z,34.90
2022-09-04T11:14:33.401Z,38.10
2022-09-04T11:17:30.469Z,39.50
2022-09-04T11:20:26.211Z,40.70
2022-09-04T11:23:31.166Z,40.80
2022-09-04T11:26:36.179Z,38.70
2022-09-04T11:29:22.740Z,38.10
2022-09-04T11:32:12.195Z,37.80
2022-09-04T11:35:27.480Z,38.10
2022-09-04T11:38:04.341Z,39.80
2022-09-04T11:41:03.612Z,41.30
2022-09-04T11:43:50.302Z,44.10
2022-09-04T11:46:44.149Z,43.70
2022-09-04T11:49:48.260Z,42.50
2022-09-04T11:52:28.445Z,40.50
2022-09-04T11:55:19.306Z,40.70
2022-09-04T11:58:00.251Z,40.20
2022-09-04T12:00:34.227Z,39.30
2022-09-04T12:03:34.123Z,37.50
2022-09-04T12:06:13.702Z,37.70
2022-09-04T12:09:07.182Z,39.50
2022-09-04T12:12:08.101Z,39.70
2022-09-04T12:14:52.043Z,39.00
2022-09-04T12:17:47.440Z,38.60
2022-09-04T12:20:50.485Z,37.40
2022-09-04T12:23:47.666Z,38.50
2022-09-04T12:26:34.565Z,36.50
2022-09-04T12:29:38.584Z,37.70
2022-09-04T12:32:28.511Z,35.60
2022-09-04T12:35:43.843Z,35.60
2022-09-04T12:38:37.651Z,36.50
2022-09-04T12:41:10.284Z,36.80
2022-09-04T12:43:53.557Z,38.10
2022-09-04T12:46:36.351Z,40.10
2022-09-04T12:49:26.049Z,40.70
2022-09-04T12:52:06.176Z,40.90
2022-09-04T12:54:41.133Z,41.60
2022-09-04T12:57:25.274Z,41.00
2022-09-04T13:00:05.653Z,41.20
2022-09-04T13:02:46.859Z,39.50
2022-09-04T13:05:51.731Z,39.20
2022-09-04T13:08:31.463Z,40.40
2022-09-04T13:11:07.872Z,42.30
2022-09-04T13:13:43.858Z,42.90
2022-09-04T13:16:20.323Z,42.70
2022-09-04T13:19:00.087Z,42.40
2022-09-04T13:21:54.840Z,43.70
2022-09-04T13:24:35.714Z,44.10
2022-09-04T13:27:16.191Z,44.70
2022-09-04T13:30:02.877Z,45.50
2022-09-04T13:32:53.420Z,46.10
2022-09-04T13:35:36.761Z,46.60
2022-09-04T13:38:21.200Z,46.60
2022-09-04T13:41:13.745Z,46.70
2022-09-04T13:44:16.165Z,46.10
2022-09-04T13:46:50.596Z,45.80
2022-09-04T13:49:27.194Z,45.20
2022-09-04T13:52:02.211Z,44.60
2022-09-04T13:54:34.951Z,45.10
2022-09-04T13:57:09.325Z,45.60
2022-09-04T13:59:38.229Z,46.20
2022-09-04T14:02:13.184Z,46.60
2022-09-04T14:04:44.873Z,45.90
2022-09-04T14:07:19.599Z,45.80
2022-09-04T14:09:50.897Z,45.70
2022-09-04T14:12:35.428Z,45.10
2022-09-04T14:15:32.715Z,45.10
2022-09-04T14:18:16.127Z,45.40
2022-09-04T14:21:01.358Z,45.30
2022-09-04T14:23:42.184Z,45.60
2022-09-04T14:26:21.727Z,44.40
2022-09-04T14:28:59.568Z,45.30
2022-09-04T14:31:35.108Z,45.00
2022-09-04T14:34:15.977Z,44.30
2022-09-04T14:36:56.439Z,43.50
2022-09-04T14:39:28.946Z,43.80
2022-09-04T14:42:22.141Z,43.60
2022-09-04T14:45:13.173Z,43.20
2022-09-04T14:47:47.197Z,43.00
2022-09-04T14:50:18.191Z,43.10
2022-09-04T14:52:51.323Z,42.90
2022-09-04T14:55:26.468Z,43.30
2022-09-04T14:58:00.729Z,43.60
2022-09-04T15:00:31.300Z,43.80
2022-09-04T15:03:09.656Z,44.00
2022-09-04T15:05:47.264Z,44.50
2022-09-04T15:08:28.820Z,44.60
2022-09-04T15:11:00.627Z,44.40
2022-09-04T15:13:52.911Z,44.00
2022-09-04T15:16:35.563Z,43.40
2022-09-04T15:19:12.641Z,43.60
2022-09-04T15:21:46.387Z,44.60
2022-09-04T15:24:25.778Z,44.60
2022-09-04T15:27:01.384Z,43.90
2022-09-04T15:29:36.615Z,43.70
2022-09-04T15:32:13.797Z,44.80
2022-09-04T15:34:42.675Z,44.70
2022-09-04T15:37:14.352Z,45.40
2022-09-04T15:39:51.163Z,44.70
2022-09-04T15:42:36.110Z,44.20
2022-09-04T15:45:11.105Z,44.40
2022-09-04T15:47:58.048Z,44.40
2022-09-04T15:50:29.188Z,44.50
2022-09-04T15:53:09.960Z,44.20
2022-09-04T15:55:41.152Z,44.50
2022-09-04T15:58:16.716Z,44.70
2022-09-04T16:01:12.001Z,45.00
2022-09-04T16:03:59.986Z,45.20
2022-09-04T16:06:32.090Z,45.50
2022-09-04T16:09:04.692Z,45.60
2022-09-04T16:11:36.100Z,45.60
2022-09-04T16:14:06.337Z,45.60
2022-09-04T16:16:43.114Z,45.20
2022-09-04T16:19:23.743Z,44.50
2022-09-04T16:22:04.585Z,45.00
2022-09-04T16:24:36.486Z,44.90
2022-09-04T16:27:09.640Z,45.90
2022-09-04T16:29:41.841Z,45.50
2022-09-04T16:32:12.149Z,45.30
2022-09-04T16:34:48.996Z,45.50
2022-09-04T16:37:23.464Z,45.00
2022-09-04T16:40:05.598Z,45.60
2022-09-04T16:42:42.273Z,45.30
2022-09-04T16:45:14.931Z,45.50
2022-09-04T16:47:47.129Z,45.80
2022-09-04T16:50:27.157Z,45.60
2022-09-04T16:53:13.591Z,46.00
2022-09-04T16:55:48.688Z,46.60
2022-09-04T16:58:39.812Z,47.00
2022-09-04T17:01:16.783Z,47.10
2022-09-04T17:04:13.133Z,47.20
2022-09-04T17:06:54.098Z,47.20
2022-09-04T17:09:28.543Z,46.60
2022-09-04T17:12:01.373Z,46.90
2022-09-04T17:14:36.246Z,46.50
2022-09-04T17:17:21.539Z,47.10
2022-09-04T17:20:05.339Z,47.40
2022-09-04T17:28:54.077Z,47.80
2022-09-04T17:29:15.231Z,47.50
2022-09-04T17:29:28.128Z,47.00
2022-09-04T17:31:53.530Z,46.70
2022-09-04T17:40:30.447Z,47.10
2022-09-04T17:40:51.766Z,47.10
2022-09-04T17:41:40.151Z,47.00
2022-09-04T17:43:32.806Z,47.60
2022-09-04T17:46:12.546Z,48.00
2022-09-04T17:48:43.585Z,47.90
2022-09-04T17:51:19.196Z,47.90
2022-09-04T17:53:53.135Z,48.30
2022-09-04T17:56:26.217Z,48.60
2022-09-04T17:58:58.040Z,49.10
2022-09-04T18:01:29.870Z,49.40
2022-09-04T18:04:22.849Z,49.30
2022-09-04T18:07:00.542Z,49.50
2022-09-04T18:10:03.762Z,50.00
2022-09-04T18:12:37.696Z,50.00
2022-09-04T18:15:33.219Z,50.40
2022-09-04T18:18:08.621Z,51.40
2022-09-04T18:20:39.996Z,51.90
2022-09-04T18:23:51.516Z,52.20
2022-09-04T18:26:40.081Z,53.20
2022-09-04T18:31:11.305Z,53.50
2022-09-04T18:37:11.681Z,53.90
2022-09-04T18:37:20.413Z,55.00
2022-09-04T18:38:20.343Z,62.00
2022-09-04T18:46:33.279Z,66.30
2022-09-04T18:50:33.210Z,63.00
2022-09-04T18:50:34.150Z,61.30
2022-09-04T18:50:40.488Z,65.40
2022-09-04T18:52:19.258Z,61.80
2022-09-04T18:54:51.880Z,63.10
2022-09-04T18:57:28.008Z,64.00
2022-09-04T19:00:08.778Z,64.60
2022-09-04T19:02:52.891Z,64.70
2022-09-04T19:05:24.273Z,65.10
2022-09-04T19:07:56.961Z,66.00
2022-09-04T19:10:27.927Z,67.10
2022-09-04T19:13:01.766Z,67.80
2022-09-04T19:15:51.741Z,68.10
2022-09-04T19:18:26.802Z,69.10
2022-09-04T19:21:11.195Z,69.70
2022-09-04T19:23:47.379Z,71.90
2022-09-04T19:26:24.387Z,72.40
2022-09-04T19:28:57.222Z,73.40
2022-09-04T19:31:32.679Z,73.60
2022-09-04T19:34:08.754Z,73.10
2022-09-04T19:36:43.675Z,72.80
2022-09-04T19:45:57.587Z,72.60
2022-09-04T19:45:59.935Z,71.60
2022-09-04T19:46:11.290Z,72.20
2022-09-04T19:48:18.336Z,73.80
2022-09-04T19:53:19.252Z,75.60
2022-09-04T19:53:51.978Z,77.20
2022-09-04T19:56:30.329Z,75.90
2022-09-04T19:59:05.752Z,76.00
2022-09-04T20:01:43.301Z,75.80
2022-09-04T20:04:23.661Z,77.30
2022-09-04T20:06:55.783Z,77.50
2022-09-04T20:09:33.063Z,77.90
2022-09-04T20:12:11.109Z,77.90
2022-09-04T20:14:43.210Z,77.80
2022-09-04T20:17:27.309Z,75.80
2022-09-04T20:20:00.390Z,74.70
2022-09-04T20:22:32.791Z,74.80
2022-09-04T20:25:20.147Z,75.40
2022-09-04T20:27:51.865Z,76.50
2022-09-04T20:30:21.149Z,76.00
2022-09-04T20:32:56.588Z,76.00
2022-09-04T20:35:39.023Z,77.40
2022-09-04T20:38:23.489Z,78.30
2022-09-04T20:40:57.171Z,79.70
2022-09-04T20:43:32.014Z,79.60
2022-09-04T20:47:58.204Z,80.90
2022-09-04T20:52:58.242Z,83.30
2022-09-04T20:53:05.236Z,82.00
2022-09-04T20:55:10.913Z,80.90
2022-09-04T21:03:05.322Z,81.50
2022-09-04T21:03:17.934Z,80.80
2022-09-04T21:03:56.461Z,80.10
2022-09-04T21:06:31.049Z,81.00
2022-09-04T21:09:10.088Z,82.20
2022-09-04T21:11:42.161Z,81.90
2022-09-04T21:14:17.494Z,85.40
2022-09-04T21:17:16.987Z,90.30
2022-09-04T21:20:13.637Z,91.80
2022-09-04T21:23:05.369Z,90.30
2022-09-04T21:25:47.541Z,90.70
2022-09-04T21:28:54.691Z,93.30
2022-09-04T21:31:45.538Z,94.50
2022-09-04T21:34:33.283Z,95.70
2022-09-04T21:37:18.104Z,95.30
2022-09-04T21:40:21.641Z,96.20
2022-09-04T21:43:20.725Z,96.30
2022-09-04T21:46:13.065Z,95.70
2022-09-04T21:49:07.942Z,94.80
2022-09-04T21:51:55.457Z,95.00
2022-09-04T21:56:38.102Z,95.70
2022-09-04T22:02:36.514Z,93.10
2022-09-04T22:02:36.517Z,94.90
2022-09-04T22:04:05.502Z,95.20
2022-09-04T22:09:44.460Z,96.80
2022-09-04T22:13:33.919Z,98.90
2022-09-04T22:13:44.032Z,97.20
2022-09-04T22:15:58.981Z,99.90
2022-09-04T22:18:43.850Z,99.90
2022-09-04T22:21:25.571Z,99.90
2022-09-04T22:24:32.960Z,99.90
2022-09-04T22:27:37.682Z,99.90
2022-09-04T22:30:23.461Z,99.90
2022-09-04T22:33:32.353Z,99.90
2022-09-04T22:36:36.211Z,99.90
2022-09-04T22:39:46.665Z,99.90
2022-09-04T22:42:33.196Z,99.90
2022-09-04T22:45:24.836Z,99.90
2022-09-04T22:48:21.965Z,99.90
2022-09-04T22:51:01.816Z,99.90
2022-09-04T22:54:01.283Z,97.90
2022-09-04T22:56:52.714Z,96.80
2022-09-04T22:59:52.980Z,96.50
2022-09-04T23:06:16.175Z,95.40
2022-09-04T23:13:46.718Z,94.10
2022-09-04T23:13:49.105Z,93.60
2022-09-04T23:15:14.892Z,93.60
2022-09-04T23:21:16.627Z,94.20
2022-09-04T23:26:38.680Z,94.80
2022-09-04T23:26:46.441Z,96.40
2022-09-04T23:27:28.727Z,99.30
2022-09-04T23:30:26.539Z,99.90
2022-09-04T23:33:37.905Z,99.90
2022-09-04T23:36:33.195Z,99.90
2022-09-04T23:39:41.816Z,97.70
2022-09-04T23:42:29.358Z,95.10
2022-09-04T23:45:24.258Z,94.20
2022-09-04T23:48:08.859Z,93.70
2022-09-04T23:50:48.104Z,94.50
2022-09-04T23:53:29.407Z,94.40
2022-09-04T23:56:17.402Z,93.90
2022-09-04T23:59:19.025Z,93.80
